The Bluffs, Louisiana
Current Conditions -  °F | °C
As of 3:15 AM on Saturday 01 Nov 2014 (Local Time) from KHZR Reporting Station
Clear Clear  
Wind Chill: 40°   Ceiling: Unl
Heat Index: 46°   Visibility: 10mi
Dew Point: 35°   Wind: 14mph
Humidity: 65%   Direction: 10°N
Pressure: 30.28"   Gusts: 17mph
Location:  30.8345°N, 91.2519°W
Report Text: KHZR 010815Z AUTO 01012G15KT 10SM CLR 08/02 A3028 RMK AO2 T00800017
Loading
Personal Weather Stations






























Interactive Weather Map
Tropical Storm Tracking
New forecast layout! Learn more

10-Day Weather Forecast

Advertisements
Track Severe Weather on mobile